sensor_id;sensor_type;location;lat;lon;timestamp;pressure;altitude;pressure_sealevel;temperature;humidity
10014;BME280;45684;48.358;10.746;2023-01-09T00:01:10;94652.00;;;4.85;nan
10014;BME280;45684;48.358;10.746;2023-01-09T00:03:38;94644.75;;;4.86;nan
10014;BME280;45684;48.358;10.746;2023-01-09T00:06:06;94648.69;;;4.89;nan
10014;BME280;45684;48.358;10.746;2023-01-09T00:08:34;94651.34;;;4.89;nan
10014;BME280;45684;48.358;10.746;2023-01-09T00:11:03;94659.09;;;4.90;nan
10014;BME280;45684;48.358;10.746;2023-01-09T00:13:33;94663.19;;;4.88;nan
10014;BME280;45684;48.358;10.746;2023-01-09T00:16:02;94664.75;;;4.89;nan
10014;BME280;45684;48.358;10.746;2023-01-09T00:18:30;94659.09;;;4.90;nan
10014;BME280;45684;48.358;10.746;2023-01-09T00:20:59;94666.97;;;4.86;nan
10014;BME280;45684;48.358;10.746;2023-01-09T00:23:27;94664.75;;;4.89;nan
10014;BME280;45684;48.358;10.746;2023-01-09T00:26:02;94654.81;;;4.89;nan
10014;BME280;45684;48.358;10.746;2023-01-09T00:28:31;94656.72;;;4.89;nan
10014;BME280;45684;48.358;10.746;2023-01-09T00:31:01;94656.72;;;4.89;nan
10014;BME280;45684;48.358;10.746;2023-01-09T00:33:32;94651.84;;;4.91;nan
10014;BME280;45684;48.358;10.746;2023-01-09T00:36:01;94646.50;;;4.91;nan
10014;BME280;45684;48.358;10.746;2023-01-09T00:38:29;94646.16;;;4.92;nan
10014;BME280;45684;48.358;10.746;2023-01-09T00:41:00;94661.44;;;4.92;nan
10014;BME280;45684;48.358;10.746;2023-01-09T00:43:30;94656.88;;;4.92;nan
10014;BME280;45684;48.358;10.746;2023-01-09T00:46:02;94665.69;;;4.93;nan
10014;BME280;45684;48.358;10.746;2023-01-09T00:48:32;94658.44;;;4.93;nan
10014;BME280;45684;48.358;10.746;2023-01-09T00:51:01;94672.63;;;4.94;nan
10014;BME280;45684;48.358;10.746;2023-01-09T00:53:31;94662.69;;;4.94;nan
10014;BME280;45684;48.358;10.746;2023-01-09T00:56:02;94670.72;;;4.94;nan
10014;BME280;45684;48.358;10.746;2023-01-09T00:58:32;94669.16;;;4.93;nan
10014;BME280;45684;48.358;10.746;2023-01-09T01:01:02;94671.03;;;4.93;nan
10014;BME280;45684;48.358;10.746;2023-01-09T01:03:30;94666.81;;;4.92;nan
10014;BME280;45684;48.358;10.746;2023-01-09T01:05:58;94658.94;;;4.95;nan
10014;BME280;45684;48.358;10.746;2023-01-09T01:08:43;94648.50;;;4.94;nan
10014;BME280;45684;48.358;10.746;2023-01-09T01:11:11;94652.78;;;4.95;nan
10014;BME280;45684;48.358;10.746;2023-01-09T01:13:40;94645.84;;;4.94;nan
10014;BME280;45684;48.358;10.746;2023-01-09T01:16:11;94637.00;;;4.93;nan
10014;BME280;45684;48.358;10.746;2023-01-09T01:18:40;94630.53;;;4.94;nan
10014;BME280;45684;48.358;10.746;2023-01-09T01:21:09;94625.53;;;4.93;nan
10014;BME280;45684;48.358;10.746;2023-01-09T01:23:37;94622.50;;;4.94;nan
10014;BME280;45684;48.358;10.746;2023-01-09T01:26:06;94622.50;;;4.94;nan
10014;BME280;45684;48.358;10.746;2023-01-09T01:28:34;94614.97;;;4.96;nan
10014;BME280;45684;48.358;10.746;2023-01-09T01:31:03;94611.34;;;4.92;nan
10014;BME280;45684;48.358;10.746;2023-01-09T01:33:33;94614.81;;;4.93;nan
10014;BME280;45684;48.358;10.746;2023-01-09T01:36:02;94617.16;;;4.94;nan
10014;BME280;45684;48.358;10.746;2023-01-09T01:38:31;94614.47;;;4.94;nan
10014;BME280;45684;48.358;10.746;2023-01-09T01:41:00;94630.09;;;4.92;nan
10014;BME280;45684;48.358;10.746;2023-01-09T01:43:47;94625.19;;;4.94;nan
10014;BME280;45684;48.358;10.746;2023-01-09T01:46:16;94614.19;;;4.96;nan
10014;BME280;45684;48.358;10.746;2023-01-09T01:48:47;94606.94;;;4.96;nan
10014;BME280;45684;48.358;10.746;2023-01-09T01:51:17;94606.16;;;4.96;nan
10014;BME280;45684;48.358;10.746;2023-01-09T01:53:49;94604.41;;;4.91;nan
10014;BME280;45684;48.358;10.746;2023-01-09T01:56:20;94600.97;;;4.91;nan
10014;BME280;45684;48.358;10.746;2023-01-09T01:59:02;94589.47;;;4.90;nan
10014;BME280;45684;48.358;10.746;2023-01-09T02:01:31;94593.22;;;4.89;nan
10014;BME280;45684;48.358;10.746;2023-01-09T02:04:01;94599.53;;;4.84;nan
10014;BME280;45684;48.358;10.746;2023-01-09T02:06:29;94589.47;;;4.81;nan
10014;BME280;45684;48.358;10.746;2023-01-09T02:08:59;94601.31;;;4.80;nan
10014;BME280;45684;48.358;10.746;2023-01-09T02:11:28;94600.50;;;4.80;nan
10014;BME280;45684;48.358;10.746;2023-01-09T02:13:56;94595.94;;;4.80;nan
10014;BME280;45684;48.358;10.746;2023-01-09T02:16:35;94588.69;;;4.81;nan
10014;BME280;45684;48.358;10.746;2023-01-09T02:19:26;94602.38;;;4.79;nan
10014;BME280;45684;48.358;10.746;2023-01-09T02:22:07;94586.19;;;4.76;nan
10014;BME280;45684;48.358;10.746;2023-01-09T02:24:54;94581.13;;;4.74;nan
10014;BME280;45684;48.358;10.746;2023-01-09T02:27:45;94584.13;;;4.73;nan
10014;BME280;45684;48.358;10.746;2023-01-09T02:30:35;94580.97;;;4.71;nan
10014;BME280;45684;48.358;10.746;2023-01-09T02:33:28;94584.16;;;4.64;nan
10014;BME280;45684;48.358;10.746;2023-01-09T02:36:10;94578.00;;;4.64;nan
10014;BME280;45684;48.358;10.746;2023-01-09T02:38:48;94584.16;;;4.64;nan
10014;BME280;45684;48.358;10.746;2023-01-09T02:41:23;94581.47;;;4.64;nan
10014;BME280;45684;48.358;10.746;2023-01-09T02:44:11;94585.72;;;4.56;nan
10014;BME280;45684;48.358;10.746;2023-01-09T02:46:40;94581.19;;;4.57;nan
10014;BME280;45684;48.358;10.746;2023-01-09T02:49:08;94586.22;;;4.58;nan
10014;BME280;45684;48.358;10.746;2023-01-09T02:51:41;94587.78;;;4.59;nan
10014;BME280;45684;48.358;10.746;2023-01-09T02:54:23;94584.78;;;4.61;nan
10014;BME280;45684;48.358;10.746;2023-01-09T02:57:13;94580.84;;;4.58;nan
10014;BME280;45684;48.358;10.746;2023-01-09T02:59:54;94587.63;;;4.56;nan
10014;BME280;45684;48.358;10.746;2023-01-09T03:02:44;94578.03;;;4.55;nan
10014;BME280;45684;48.358;10.746;2023-01-09T03:05:20;94583.03;;;4.56;nan
10014;BME280;45684;48.358;10.746;2023-01-09T03:07:55;94576.28;;;4.59;nan
10014;BME280;45684;48.358;10.746;2023-01-09T03:10:31;94578.63;;;4.60;nan
10014;BME280;45684;48.358;10.746;2023-01-09T03:13:01;94583.38;;;4.64;nan
10014;BME280;45684;48.358;10.746;2023-01-09T03:15:35;94593.44;;;4.67;nan
10014;BME280;45684;48.358;10.746;2023-01-09T03:18:09;94586.19;;;4.76;nan
10014;BME280;45684;48.358;10.746;2023-01-09T03:20:38;94585.34;;;4.93;nan
10014;BME280;45684;48.358;10.746;2023-01-09T03:23:08;94578.22;;;5.05;nan
10014;BME280;45684;48.358;10.746;2023-01-09T03:25:36;94578.50;;;5.12;nan
10014;BME280;45684;48.358;10.746;2023-01-09T03:28:06;94576.75;;;5.17;nan
10014;BME280;45684;48.358;10.746;2023-01-09T03:30:35;94590.78;;;5.22;nan
10014;BME280;45684;48.358;10.746;2023-01-09T03:33:03;94585.72;;;5.29;nan
10014;BME280;45684;48.358;10.746;2023-01-09T03:35:32;94575.59;;;5.35;nan
10014;BME280;45684;48.358;10.746;2023-01-09T03:38:00;94586.13;;;5.40;nan
10014;BME280;45684;48.358;10.746;2023-01-09T03:40:28;94591.94;;;5.51;nan
10014;BME280;45684;48.358;10.746;2023-01-09T03:42:56;94603.72;;;5.58;nan
10014;BME280;45684;48.358;10.746;2023-01-09T03:45:24;94600.19;;;5.67;nan
10014;BME280;45684;48.358;10.746;2023-01-09T03:47:52;94609.44;;;5.78;nan
10014;BME280;45684;48.358;10.746;2023-01-09T03:50:19;94615.72;;;5.82;nan
10014;BME280;45684;48.358;10.746;2023-01-09T03:52:49;94615.53;;;5.87;nan
10014;BME280;45684;48.358;10.746;2023-01-09T03:55:17;94623.44;;;5.92;nan
10014;BME280;45684;48.358;10.746;2023-01-09T03:57:44;94632.41;;;5.96;nan
10014;BME280;45684;48.358;10.746;2023-01-09T04:00:13;94631.44;;;6.01;nan
10014;BME280;45684;48.358;10.746;2023-01-09T04:02:41;94638.50;;;6.05;nan
10014;BME280;45684;48.358;10.746;2023-01-09T04:05:09;94637.69;;;6.13;nan
10014;BME280;45684;48.358;10.746;2023-01-09T04:07:37;94644.41;;;6.20;nan
10014;BME280;45684;48.358;10.746;2023-01-09T04:10:08;94643.91;;;6.26;nan
10014;BME280;45684;48.358;10.746;2023-01-09T04:12:37;94652.56;;;6.32;nan
10014;BME280;45684;48.358;10.746;2023-01-09T04:15:05;94658.84;;;6.36;nan
10014;BME280;45684;48.358;10.746;2023-01-09T04:17:34;94664.38;;;6.39;nan
10014;BME280;45684;48.358;10.746;2023-01-09T04:20:02;94676.66;;;6.41;nan
10014;BME280;45684;48.358;10.746;2023-01-09T04:22:30;94683.75;;;6.45;nan
10014;BME280;45684;48.358;10.746;2023-01-09T04:24:57;94686.09;;;6.47;nan
10014;BME280;45684;48.358;10.746;2023-01-09T04:27:27;94681.31;;;6.52;nan
10014;BME280;45684;48.358;10.746;2023-01-09T04:29:55;94690.28;;;6.56;nan
10014;BME280;45684;48.358;10.746;2023-01-09T04:32:23;94690.44;;;6.60;nan
10014;BME280;45684;48.358;10.746;2023-01-09T04:34:53;94696.38;;;6.65;nan
10014;BME280;45684;48.358;10.746;2023-01-09T04:37:21;94701.91;;;6.69;nan
10014;BME280;45684;48.358;10.746;2023-01-09T04:39:49;94706.47;;;6.69;nan
10014;BME280;45684;48.358;10.746;2023-01-09T04:42:21;94702.81;;;6.73;nan
10014;BME280;45684;48.358;10.746;2023-01-09T04:44:50;94714.00;;;6.75;nan
10014;BME280;45684;48.358;10.746;2023-01-09T04:47:19;94726.78;;;6.78;nan
10014;BME280;45684;48.358;10.746;2023-01-09T04:49:49;94724.88;;;6.79;nan
10014;BME280;45684;48.358;10.746;2023-01-09T04:52:17;94728.94;;;6.85;nan
10014;BME280;45684;48.358;10.746;2023-01-09T04:54:44;94724.84;;;6.87;nan
10014;BME280;45684;48.358;10.746;2023-01-09T04:57:12;94741.72;;;6.88;nan
10014;BME280;45684;48.358;10.746;2023-01-09T04:59:40;94746.78;;;6.89;nan
10014;BME280;45684;48.358;10.746;2023-01-09T05:02:09;94747.09;;;6.88;nan
10014;BME280;45684;48.358;10.746;2023-01-09T05:04:37;94751.06;;;6.90;nan
10014;BME280;45684;48.358;10.746;2023-01-09T05:07:05;94752.81;;;6.86;nan
10014;BME280;45684;48.358;10.746;2023-01-09T05:09:33;94763.22;;;6.88;nan
10014;BME280;45684;48.358;10.746;2023-01-09T05:12:01;94764.22;;;6.83;nan
10014;BME280;45684;48.358;10.746;2023-01-09T05:14:29;94769.44;;;6.80;nan
10014;BME280;45684;48.358;10.746;2023-01-09T05:16:57;94766.31;;;6.78;nan
10014;BME280;45684;48.358;10.746;2023-01-09T05:19:27;94781.50;;;6.74;nan
10014;BME280;45684;48.358;10.746;2023-01-09T05:21:55;94773.44;;;6.74;nan
10014;BME280;45684;48.358;10.746;2023-01-09T05:24:23;94785.31;;;6.73;nan
10014;BME280;45684;48.358;10.746;2023-01-09T05:26:51;94775.19;;;6.70;nan
10014;BME280;45684;48.358;10.746;2023-01-09T05:29:18;94762.88;;;6.69;nan
10014;BME280;45684;48.358;10.746;2023-01-09T05:31:46;94787.69;;;6.65;nan
10014;BME280;45684;48.358;10.746;2023-01-09T05:34:14;94798.00;;;6.63;nan
10014;BME280;45684;48.358;10.746;2023-01-09T05:36:43;94791.34;;;6.61;nan
10014;BME280;45684;48.358;10.746;2023-01-09T05:39:11;94787.09;;;6.60;nan
10014;BME280;45684;48.358;10.746;2023-01-09T05:41:39;94801.31;;;6.60;nan
10014;BME280;45684;48.358;10.746;2023-01-09T05:44:07;94788.66;;;6.61;nan
10014;BME280;45684;48.358;10.746;2023-01-09T05:46:35;94793.00;;;6.53;nan
10014;BME280;45684;48.358;10.746;2023-01-09T05:49:02;94798.03;;;6.55;nan
10014;BME280;45684;48.358;10.746;2023-01-09T05:51:30;94806.41;;;6.53;nan
10014;BME280;45684;48.358;10.746;2023-01-09T05:53:59;94815.13;;;6.50;nan
10014;BME280;45684;48.358;10.746;2023-01-09T05:56:28;94808.63;;;6.51;nan
10014;BME280;45684;48.358;10.746;2023-01-09T05:58:56;94826.50;;;6.47;nan
10014;BME280;45684;48.358;10.746;2023-01-09T06:01:24;94836.59;;;6.50;nan
10014;BME280;45684;48.358;10.746;2023-01-09T06:03:52;94841.50;;;6.48;nan
10014;BME280;45684;48.358;10.746;2023-01-09T06:06:20;94848.91;;;6.51;nan
10014;BME280;45684;48.358;10.746;2023-01-09T06:08:49;94858.44;;;6.40;nan
10014;BME280;45684;48.358;10.746;2023-01-09T06:11:18;94876.75;;;6.38;nan
10014;BME280;45684;48.358;10.746;2023-01-09T06:13:46;94866.53;;;6.31;nan
10014;BME280;45684;48.358;10.746;2023-01-09T06:16:14;94862.91;;;6.19;nan
10014;BME280;45684;48.358;10.746;2023-01-09T06:18:42;94879.69;;;6.16;nan
10014;BME280;45684;48.358;10.746;2023-01-09T06:21:10;94893.91;;;6.07;nan
10014;BME280;45684;48.358;10.746;2023-01-09T06:23:38;94894.06;;;6.02;nan
10014;BME280;45684;48.358;10.746;2023-01-09T06:26:05;94898.31;;;5.86;nan
10014;BME280;45684;48.358;10.746;2023-01-09T06:28:35;94896.72;;;5.85;nan
10014;BME280;45684;48.358;10.746;2023-01-09T06:31:03;94908.09;;;5.82;nan
10014;BME280;45684;48.358;10.746;2023-01-09T06:33:31;94911.41;;;5.79;nan
10014;BME280;45684;48.358;10.746;2023-01-09T06:35:58;94908.91;;;5.74;nan
10014;BME280;45684;48.358;10.746;2023-01-09T06:38:26;94911.56;;;5.74;nan
10014;BME280;45684;48.358;10.746;2023-01-09T06:40:54;94915.34;;;5.73;nan
10014;BME280;45684;48.358;10.746;2023-01-09T06:43:22;94913.16;;;5.66;nan
10014;BME280;45684;48.358;10.746;2023-01-09T06:45:52;94932.69;;;5.67;nan
10014;BME280;45684;48.358;10.746;2023-01-09T06:48:20;94930.03;;;5.67;nan
10014;BME280;45684;48.358;10.746;2023-01-09T06:50:50;94946.13;;;5.67;nan
10014;BME280;45684;48.358;10.746;2023-01-09T06:53:18;94954.78;;;5.63;nan
10014;BME280;45684;48.358;10.746;2023-01-09T06:55:46;94943.09;;;5.59;nan
10014;BME280;45684;48.358;10.746;2023-01-09T06:58:14;94953.81;;;5.59;nan
10014;BME280;45684;48.358;10.746;2023-01-09T07:00:42;94962.50;;;5.56;nan
10014;BME280;45684;48.358;10.746;2023-01-09T07:03:11;94964.88;;;5.58;nan
10014;BME280;45684;48.358;10.746;2023-01-09T07:05:45;94965.19;;;5.56;nan
10014;BME280;45684;48.358;10.746;2023-01-09T07:08:13;94976.69;;;5.57;nan
10014;BME280;45684;48.358;10.746;2023-01-09T07:10:41;94973.56;;;5.55;nan
10014;BME280;45684;48.358;10.746;2023-01-09T07:13:09;94979.22;;;5.53;nan
10014;BME280;45684;48.358;10.746;2023-01-09T07:15:37;94988.69;;;5.51;nan
10014;BME280;45684;48.358;10.746;2023-01-09T07:18:05;94983.94;;;5.48;nan
10014;BME280;45684;48.358;10.746;2023-01-09T07:20:34;94991.66;;;5.49;nan
10014;BME280;45684;48.358;10.746;2023-01-09T07:23:02;94985.34;;;5.45;nan
10014;BME280;45684;48.358;10.746;2023-01-09T07:25:30;94999.38;;;5.42;nan
10014;BME280;45684;48.358;10.746;2023-01-09T07:27:57;94999.53;;;5.37;nan
10014;BME280;45684;48.358;10.746;2023-01-09T07:30:25;94999.81;;;5.35;nan
10014;BME280;45684;48.358;10.746;2023-01-09T07:32:53;95009.13;;;5.29;nan
10014;BME280;45684;48.358;10.746;2023-01-09T07:35:21;95012.72;;;5.25;nan
10014;BME280;45684;48.358;10.746;2023-01-09T07:37:50;95020.59;;;5.21;nan
10014;BME280;45684;48.358;10.746;2023-01-09T07:40:18;95027.84;;;5.21;nan
10014;BME280;45684;48.358;10.746;2023-01-09T07:42:46;95037.78;;;5.20;nan
10014;BME280;45684;48.358;10.746;2023-01-09T07:45:14;95052.59;;;5.18;nan
10014;BME280;45684;48.358;10.746;2023-01-09T07:47:42;95050.03;;;5.12;nan
10014;BME280;45684;48.358;10.746;2023-01-09T07:50:10;95062.97;;;5.10;nan
10014;BME280;45684;48.358;10.746;2023-01-09T07:52:38;95066.25;;;5.07;nan
10014;BME280;45684;48.358;10.746;2023-01-09T07:55:09;95059.31;;;5.06;nan
10014;BME280;45684;48.358;10.746;2023-01-09T07:57:37;95065.91;;;5.00;nan
10014;BME280;45684;48.358;10.746;2023-01-09T08:00:06;95074.41;;;5.02;nan
10014;BME280;45684;48.358;10.746;2023-01-09T08:02:39;95068.88;;;4.99;nan
10014;BME280;45684;48.358;10.746;2023-01-09T08:05:07;95051.22;;;4.98;nan
10014;BME280;45684;48.358;10.746;2023-01-09T08:07:39;95053.44;;;4.96;nan
10014;BME280;45684;48.358;10.746;2023-01-09T08:10:09;95052.34;;;4.97;nan
10014;BME280;45684;48.358;10.746;2023-01-09T08:12:41;95053.72;;;4.94;nan
10014;BME280;45684;48.358;10.746;2023-01-09T08:15:10;95049.00;;;4.91;nan
10014;BME280;45684;48.358;10.746;2023-01-09T08:17:40;95056.06;;;4.87;nan
10014;BME280;45684;48.358;10.746;2023-01-09T08:20:09;95055.41;;;4.81;nan
10014;BME280;45684;48.358;10.746;2023-01-09T08:22:40;95056.50;;;4.80;nan
10014;BME280;45684;48.358;10.746;2023-01-09T08:25:09;95051.94;;;4.81;nan
10014;BME280;45684;48.358;10.746;2023-01-09T08:27:38;95048.78;;;4.79;nan
10014;BME280;45684;48.358;10.746;2023-01-09T08:30:07;95048.94;;;4.82;nan
10014;BME280;45684;48.358;10.746;2023-01-09T08:32:36;95045.50;;;4.82;nan
10014;BME280;45684;48.358;10.746;2023-01-09T08:35:06;95051.50;;;4.88;nan
10014;BME280;45684;48.358;10.746;2023-01-09T08:37:34;95066.66;;;4.92;nan
10014;BME280;45684;48.358;10.746;2023-01-09T08:40:03;95076.91;;;4.99;nan
10014;BME280;45684;48.358;10.746;2023-01-09T08:42:32;95073.63;;;5.02;nan
10014;BME280;45684;48.358;10.746;2023-01-09T08:45:17;95082.94;;;5.04;nan
10014;BME280;45684;48.358;10.746;2023-01-09T08:48:03;95084.22;;;5.07;nan
10014;BME280;45684;48.358;10.746;2023-01-09T08:50:31;95080.94;;;5.10;nan
10014;BME280;45684;48.358;10.746;2023-01-09T08:52:59;95081.91;;;5.14;nan
10014;BME280;45684;48.358;10.746;2023-01-09T08:55:27;95075.56;;;5.10;nan
10014;BME280;45684;48.358;10.746;2023-01-09T08:57:56;95071.97;;;5.15;nan
10014;BME280;45684;48.358;10.746;2023-01-09T09:00:24;95065.03;;;5.14;nan
10014;BME280;45684;48.358;10.746;2023-01-09T09:02:53;95082.19;;;5.12;nan
10014;BME280;45684;48.358;10.746;2023-01-09T09:05:26;95086.47;;;5.14;nan
10014;BME280;45684;48.358;10.746;2023-01-09T09:07:55;95083.66;;;5.19;nan
10014;BME280;45684;48.358;10.746;2023-01-09T09:10:25;95081.44;;;5.21;nan
10014;BME280;45684;48.358;10.746;2023-01-09T09:12:55;95093.72;;;5.22;nan
10014;BME280;45684;48.358;10.746;2023-01-09T09:15:27;95086.53;;;5.31;nan
10014;BME280;45684;48.358;10.746;2023-01-09T09:17:56;95098.81;;;5.23;nan
10014;BME280;45684;48.358;10.746;2023-01-09T09:20:26;95097.09;;;5.27;nan
10014;BME280;45684;48.358;10.746;2023-01-09T09:22:55;95098.22;;;5.35;nan
10014;BME280;45684;48.358;10.746;2023-01-09T09:25:23;95105.97;;;5.36;nan
10014;BME280;45684;48.358;10.746;2023-01-09T09:27:50;95099.13;;;5.30;nan
10014;BME280;45684;48.358;10.746;2023-01-09T09:30:19;95099.69;;;5.41;nan
10014;BME280;45684;48.358;10.746;2023-01-09T09:32:48;95093.69;;;5.44;nan
10014;BME280;45684;48.358;10.746;2023-01-09T09:35:17;95102.69;;;5.48;nan
10014;BME280;45684;48.358;10.746;2023-01-09T09:37:52;95116.69;;;5.45;nan
10014;BME280;45684;48.358;10.746;2023-01-09T09:40:31;95104.56;;;5.48;nan
10014;BME280;45684;48.358;10.746;2023-01-09T09:43:10;95108.66;;;5.45;nan
10014;BME280;45684;48.358;10.746;2023-01-09T09:46:10;95109.28;;;5.42;nan
10014;BME280;45684;48.358;10.746;2023-01-09T09:48:47;95098.91;;;5.49;nan
10014;BME280;45684;48.358;10.746;2023-01-09T09:51:28;95098.59;;;5.51;nan
10014;BME280;45684;48.358;10.746;2023-01-09T09:54:01;95092.47;;;5.59;nan
10014;BME280;45684;48.358;10.746;2023-01-09T09:56:35;95093.91;;;5.65;nan
10014;BME280;45684;48.358;10.746;2023-01-09T09:59:09;95099.75;;;5.67;nan
10014;BME280;45684;48.358;10.746;2023-01-09T10:01:40;95094.56;;;5.71;nan
10014;BME280;45684;48.358;10.746;2023-01-09T10:04:13;95100.25;;;5.69;nan
10014;BME280;45684;48.358;10.746;2023-01-09T10:06:44;95100.25;;;5.78;nan
10014;BME280;45684;48.358;10.746;2023-01-09T10:09:19;95099.00;;;5.75;nan
10014;BME280;45684;48.358;10.746;2023-01-09T10:11:56;95100.56;;;5.76;nan
10014;BME280;45684;48.358;10.746;2023-01-09T10:14:26;95090.34;;;5.78;nan
10014;BME280;45684;48.358;10.746;2023-01-09T10:22:53;95085.91;;;5.82;nan
10014;BME280;45684;48.358;10.746;2023-01-09T10:25:30;95077.56;;;5.84;nan
10014;BME280;45684;48.358;10.746;2023-01-09T10:28:14;95077.09;;;5.91;nan
10014;BME280;45684;48.358;10.746;2023-01-09T10:30:46;95069.41;;;5.98;nan
10014;BME280;45684;48.358;10.746;2023-01-09T10:33:33;95077.59;;;6.01;nan
10014;BME280;45684;48.358;10.746;2023-01-09T10:36:29;95078.56;;;6.05;nan
10014;BME280;45684;48.358;10.746;2023-01-09T10:39:05;95066.09;;;6.09;nan
10014;BME280;45684;48.358;10.746;2023-01-09T10:41:38;95075.44;;;6.21;nan
10014;BME280;45684;48.358;10.746;2023-01-09T10:44:15;95076.69;;;6.23;nan
10014;BME280;45684;48.358;10.746;2023-01-09T10:46:48;95068.63;;;6.32;nan
10014;BME280;45684;48.358;10.746;2023-01-09T10:49:21;95077.03;;;6.39;nan
10014;BME280;45684;48.358;10.746;2023-01-09T10:51:52;95080.00;;;6.37;nan
10014;BME280;45684;48.358;10.746;2023-01-09T10:54:24;95067.84;;;6.40;nan
10014;BME280;45684;48.358;10.746;2023-01-09T10:56:54;95080.50;;;6.39;nan
10014;BME280;45684;48.358;10.746;2023-01-09T10:59:23;95065.63;;;6.42;nan
10014;BME280;45684;48.358;10.746;2023-01-09T11:01:52;95074.78;;;6.41;nan
10014;BME280;45684;48.358;10.746;2023-01-09T11:04:24;95070.03;;;6.47;nan
10014;BME280;45684;48.358;10.746;2023-01-09T11:06:58;95071.50;;;6.44;nan
10014;BME280;45684;48.358;10.746;2023-01-09T11:09:27;95070.38;;;6.45;nan
10014;BME280;45684;48.358;10.746;2023-01-09T11:11:54;95057.91;;;6.41;nan
10014;BME280;45684;48.358;10.746;2023-01-09T11:14:23;95055.06;;;6.46;nan
10014;BME280;45684;48.358;10.746;2023-01-09T11:16:59;95055.84;;;6.55;nan
10014;BME280;45684;48.358;10.746;2023-01-09T11:19:28;95052.03;;;6.47;nan
10014;BME280;45684;48.358;10.746;2023-01-09T11:22:07;95053.47;;;6.53;nan
10014;BME280;45684;48.358;10.746;2023-01-09T11:24:35;95053.94;;;6.55;nan
10014;BME280;45684;48.358;10.746;2023-01-09T11:27:21;95053.13;;;6.63;nan
10014;BME280;45684;48.358;10.746;2023-01-09T11:30:22;95059.63;;;6.62;nan
10014;BME280;45684;48.358;10.746;2023-01-09T11:32:53;95054.53;;;6.70;nan
10014;BME280;45684;48.358;10.746;2023-01-09T11:35:24;95059.28;;;6.73;nan
10014;BME280;45684;48.358;10.746;2023-01-09T11:38:05;95046.66;;;6.73;nan
10014;BME280;45684;48.358;10.746;2023-01-09T11:40:43;95062.75;;;6.82;nan
10014;BME280;45684;48.358;10.746;2023-01-09T11:43:27;95060.66;;;6.96;nan
10014;BME280;45684;48.358;10.746;2023-01-09T11:46:01;95064.47;;;6.95;nan
10014;BME280;45684;48.358;10.746;2023-01-09T11:48:38;95071.88;;;6.98;nan
10014;BME280;45684;48.358;10.746;2023-01-09T11:51:17;95076.91;;;7.08;nan
10014;BME280;45684;48.358;10.746;2023-01-09T11:54:16;95069.59;;;7.18;nan
10014;BME280;45684;48.358;10.746;2023-01-09T11:56:46;95069.72;;;7.30;nan
10014;BME280;45684;48.358;10.746;2023-01-09T11:59:16;95074.34;;;7.21;nan
10014;BME280;45684;48.358;10.746;2023-01-09T12:02:10;95075.09;;;7.30;nan
10014;BME280;45684;48.358;10.746;2023-01-09T12:04:48;95080.81;;;7.28;nan
10014;BME280;45684;48.358;10.746;2023-01-09T12:07:42;95077.78;;;7.30;nan
10014;BME280;45684;48.358;10.746;2023-01-09T12:10:31;95080.94;;;7.32;nan
10014;BME280;45684;48.358;10.746;2023-01-09T12:13:09;95094.53;;;7.35;nan
10014;BME280;45684;48.358;10.746;2023-01-09T12:15:51;95095.81;;;7.38;nan
10014;BME280;45684;48.358;10.746;2023-01-09T12:18:45;95109.53;;;7.45;nan
10014;BME280;45684;48.358;10.746;2023-01-09T12:21:31;95104.94;;;7.46;nan
10014;BME280;45684;48.358;10.746;2023-01-09T12:27:00;95105.44;;;7.39;nan
10014;BME280;45684;48.358;10.746;2023-01-09T12:29:46;95111.16;;;7.37;nan
10014;BME280;45684;48.358;10.746;2023-01-09T12:32:32;95099.47;;;7.33;nan
10014;BME280;45684;48.358;10.746;2023-01-09T12:35:08;95097.88;;;7.32;nan
10014;BME280;45684;48.358;10.746;2023-01-09T12:40:57;95101.47;;;7.36;nan
10014;BME280;45684;48.358;10.746;2023-01-09T12:43:38;95098.31;;;7.43;nan
10014;BME280;45684;48.358;10.746;2023-01-09T12:46:14;95105.25;;;7.44;nan
10014;BME280;45684;48.358;10.746;2023-01-09T12:49:05;95095.97;;;7.33;nan
10014;BME280;45684;48.358;10.746;2023-01-09T12:51:40;95097.72;;;7.37;nan
10014;BME280;45684;48.358;10.746;2023-01-09T12:54:15;95095.81;;;7.38;nan
10014;BME280;45684;48.358;10.746;2023-01-09T12:56:49;95088.84;;;7.37;nan
10014;BME280;45684;48.358;10.746;2023-01-09T12:59:28;95096.75;;;7.42;nan
10014;BME280;45684;48.358;10.746;2023-01-09T13:02:04;95091.81;;;7.44;nan
10014;BME280;45684;48.358;10.746;2023-01-09T13:04:38;95086.59;;;7.48;nan
10014;BME280;45684;48.358;10.746;2023-01-09T13:07:15;95092.75;;;7.48;nan
10014;BME280;45684;48.358;10.746;2023-01-09T13:09:48;95084.53;;;7.45;nan
10014;BME280;45684;48.358;10.746;2023-01-09T13:12:18;95083.38;;;7.54;nan
10014;BME280;45684;48.358;10.746;2023-01-09T13:14:52;95079.31;;;7.48;nan
10014;BME280;45684;48.358;10.746;2023-01-09T13:17:26;95086.75;;;7.51;nan
10014;BME280;45684;48.358;10.746;2023-01-09T13:19:56;95070.41;;;7.56;nan
10014;BME280;45684;48.358;10.746;2023-01-09T13:22:26;95071.50;;;7.55;nan
10014;BME280;45684;48.358;10.746;2023-01-09T13:25:31;95078.94;;;7.58;nan
10014;BME280;45684;48.358;10.746;2023-01-09T13:28:04;95071.81;;;7.62;nan
10014;BME280;45684;48.358;10.746;2023-01-09T13:30:57;95078.59;;;7.60;nan
10014;BME280;45684;48.358;10.746;2023-01-09T13:33:27;95069.56;;;7.64;nan
10014;BME280;45684;48.358;10.746;2023-01-09T13:36:01;95068.00;;;7.63;nan
10014;BME280;45684;48.358;10.746;2023-01-09T13:38:31;95073.06;;;7.65;nan
10014;BME280;45684;48.358;10.746;2023-01-09T13:41:07;95079.88;;;7.62;nan
10014;BME280;45684;48.358;10.746;2023-01-09T13:43:56;95079.28;;;7.57;nan
10014;BME280;45684;48.358;10.746;2023-01-09T13:46:38;95086.53;;;7.65;nan
10014;BME280;45684;48.358;10.746;2023-01-09T13:49:28;95087.59;;;7.64;nan
10014;BME280;45684;48.358;10.746;2023-01-09T13:51:59;95091.41;;;7.63;nan
10014;BME280;45684;48.358;10.746;2023-01-09T13:55:03;95082.22;;;7.64;nan
10014;BME280;45684;48.358;10.746;2023-01-09T13:58:18;95083.53;;;7.58;nan
10014;BME280;45684;48.358;10.746;2023-01-09T14:00:54;95092.13;;;7.51;nan
10014;BME280;45684;48.358;10.746;2023-01-09T14:03:25;95093.69;;;7.52;nan